sensor_id;sensor_type;location;lat;lon;timestamp;P1;durP1;ratioP1;P2;durP2;ratioP2
3149;SDS011;32503;47.748;8.960;2023-02-01T00:02:12;3.10;;;2.90;;
3149;SDS011;32503;47.748;8.960;2023-02-01T00:04:39;2.50;;;2.30;;
3149;SDS011;32503;47.748;8.960;2023-02-01T00:07:06;7.60;;;3.70;;
3149;SDS011;32503;47.748;8.960;2023-02-01T00:09:35;3.00;;;2.80;;
3149;SDS011;32503;47.748;8.960;2023-02-01T00:12:02;2.83;;;2.63;;
3149;SDS011;32503;47.748;8.960;2023-02-01T00:14:29;5.07;;;3.50;;
3149;SDS011;32503;47.748;8.960;2023-02-01T00:17:03;3.23;;;3.07;;
3149;SDS011;32503;47.748;8.960;2023-02-01T00:19:31;3.43;;;2.70;;
3149;SDS011;32503;47.748;8.960;2023-02-01T00:21:58;3.40;;;3.00;;
3149;SDS011;32503;47.748;8.960;2023-02-01T00:24:25;4.90;;;3.00;;
3149;SDS011;32503;47.748;8.960;2023-02-01T00:26:54;3.33;;;3.13;;
3149;SDS011;32503;47.748;8.960;2023-02-01T00:29:21;3.03;;;2.83;;
3149;SDS011;32503;47.748;8.960;2023-02-01T00:31:49;3.60;;;3.00;;
3149;SDS011;32503;47.748;8.960;2023-02-01T00:34:17;3.10;;;2.90;;
3149;SDS011;32503;47.748;8.960;2023-02-01T00:36:46;3.30;;;2.73;;
3149;SDS011;32503;47.748;8.960;2023-02-01T00:39:13;3.00;;;2.70;;
3149;SDS011;32503;47.748;8.960;2023-02-01T00:41:41;3.37;;;3.13;;
3149;SDS011;32503;47.748;8.960;2023-02-01T00:44:09;3.60;;;3.30;;
3149;SDS011;32503;47.748;8.960;2023-02-01T00:46:36;3.77;;;3.33;;
3149;SDS011;32503;47.748;8.960;2023-02-01T00:49:03;4.10;;;3.67;;
3149;SDS011;32503;47.748;8.960;2023-02-01T00:51:32;2.53;;;2.33;;
3149;SDS011;32503;47.748;8.960;2023-02-01T00:53:59;4.00;;;3.40;;
3149;SDS011;32503;47.748;8.960;2023-02-01T00:56:26;3.20;;;3.00;;
3149;SDS011;32503;47.748;8.960;2023-02-01T00:58:53;3.40;;;3.20;;
3149;SDS011;32503;47.748;8.960;2023-02-01T01:01:22;5.87;;;3.30;;
3149;SDS011;32503;47.748;8.960;2023-02-01T01:03:52;3.43;;;3.13;;
3149;SDS011;32503;47.748;8.960;2023-02-01T01:06:22;3.43;;;3.13;;
3149;SDS011;32503;47.748;8.960;2023-02-01T01:08:52;3.33;;;3.13;;
3149;SDS011;32503;47.748;8.960;2023-02-01T01:11:20;4.20;;;3.17;;
3149;SDS011;32503;47.748;8.960;2023-02-01T01:13:50;3.30;;;3.00;;
3149;SDS011;32503;47.748;8.960;2023-02-01T01:16:20;3.27;;;3.00;;
3149;SDS011;32503;47.748;8.960;2023-02-01T01:18:50;3.43;;;3.13;;
3149;SDS011;32503;47.748;8.960;2023-02-01T01:21:18;2.87;;;2.67;;
3149;SDS011;32503;47.748;8.960;2023-02-01T01:23:45;4.07;;;3.77;;
3149;SDS011;32503;47.748;8.960;2023-02-01T01:26:14;3.50;;;3.20;;
3149;SDS011;32503;47.748;8.960;2023-02-01T01:28:43;3.10;;;2.90;;
3149;SDS011;32503;47.748;8.960;2023-02-01T01:31:11;3.33;;;3.13;;
3149;SDS011;32503;47.748;8.960;2023-02-01T01:33:42;3.27;;;3.07;;
3149;SDS011;32503;47.748;8.960;2023-02-01T01:36:10;3.20;;;3.00;;
3149;SDS011;32503;47.748;8.960;2023-02-01T01:38:38;4.03;;;3.57;;
3149;SDS011;32503;47.748;8.960;2023-02-01T01:41:06;3.70;;;2.80;;
3149;SDS011;32503;47.748;8.960;2023-02-01T01:46:21;3.53;;;3.23;;
3149;SDS011;32503;47.748;8.960;2023-02-01T01:48:53;3.43;;;3.13;;
3149;SDS011;32503;47.748;8.960;2023-02-01T01:51:30;3.77;;;3.57;;
3149;SDS011;32503;47.748;8.960;2023-02-01T01:54:02;6.17;;;3.87;;
3149;SDS011;32503;47.748;8.960;2023-02-01T01:56:34;4.37;;;3.97;;
3149;SDS011;32503;47.748;8.960;2023-02-01T01:59:02;4.80;;;4.03;;
3149;SDS011;32503;47.748;8.960;2023-02-01T02:01:30;4.47;;;3.90;;
3149;SDS011;32503;47.748;8.960;2023-02-01T02:03:59;3.93;;;3.60;;
3149;SDS011;32503;47.748;8.960;2023-02-01T02:06:29;3.90;;;3.47;;
3149;SDS011;32503;47.748;8.960;2023-02-01T02:09:05;4.07;;;3.77;;
3149;SDS011;32503;47.748;8.960;2023-02-01T02:11:32;3.93;;;3.53;;
3149;SDS011;32503;47.748;8.960;2023-02-01T02:13:59;5.73;;;4.40;;
3149;SDS011;32503;47.748;8.960;2023-02-01T02:16:31;4.63;;;4.13;;
3149;SDS011;32503;47.748;8.960;2023-02-01T02:19:25;6.10;;;4.60;;
3149;SDS011;32503;47.748;8.960;2023-02-01T02:22:29;4.07;;;3.70;;
3149;SDS011;32503;47.748;8.960;2023-02-01T02:25:23;4.53;;;3.80;;
3149;SDS011;32503;47.748;8.960;2023-02-01T02:28:09;5.90;;;3.90;;
3149;SDS011;32503;47.748;8.960;2023-02-01T02:31:19;4.30;;;3.90;;
3149;SDS011;32503;47.748;8.960;2023-02-01T02:34:15;4.33;;;3.77;;
3149;SDS011;32503;47.748;8.960;2023-02-01T02:36:51;6.10;;;3.67;;
3149;SDS011;32503;47.748;8.960;2023-02-01T02:39:34;4.10;;;3.80;;
3149;SDS011;32503;47.748;8.960;2023-02-01T02:42:12;5.00;;;4.60;;
3149;SDS011;32503;47.748;8.960;2023-02-01T02:45:06;4.37;;;4.00;;
3149;SDS011;32503;47.748;8.960;2023-02-01T02:47:58;3.97;;;3.63;;
3149;SDS011;32503;47.748;8.960;2023-02-01T02:50:36;3.53;;;3.20;;
3149;SDS011;32503;47.748;8.960;2023-02-01T02:53:27;5.70;;;3.63;;
3149;SDS011;32503;47.748;8.960;2023-02-01T02:56:18;4.93;;;4.40;;
3149;SDS011;32503;47.748;8.960;2023-02-01T02:59:06;4.83;;;4.37;;
3149;SDS011;32503;47.748;8.960;2023-02-01T03:01:53;5.73;;;3.50;;
3149;SDS011;32503;47.748;8.960;2023-02-01T03:04:38;4.97;;;3.90;;
3149;SDS011;32503;47.748;8.960;2023-02-01T03:07:12;3.90;;;3.60;;
3149;SDS011;32503;47.748;8.960;2023-02-01T03:10:01;3.87;;;3.40;;
3149;SDS011;32503;47.748;8.960;2023-02-01T03:12:32;4.03;;;3.73;;
3149;SDS011;32503;47.748;8.960;2023-02-01T03:15:24;4.73;;;4.30;;
3149;SDS011;32503;47.748;8.960;2023-02-01T03:17:59;6.37;;;3.70;;
3149;SDS011;32503;47.748;8.960;2023-02-01T03:20:29;3.80;;;3.50;;
3149;SDS011;32503;47.748;8.960;2023-02-01T03:22:59;3.80;;;3.47;;
3149;SDS011;32503;47.748;8.960;2023-02-01T03:25:27;5.17;;;4.50;;
3149;SDS011;32503;47.748;8.960;2023-02-01T03:27:58;3.40;;;3.17;;
3149;SDS011;32503;47.748;8.960;2023-02-01T03:30:29;3.97;;;3.70;;
3149;SDS011;32503;47.748;8.960;2023-02-01T03:33:01;8.77;;;4.70;;
3149;SDS011;32503;47.748;8.960;2023-02-01T03:35:39;3.67;;;3.37;;
3149;SDS011;32503;47.748;8.960;2023-02-01T03:38:16;4.73;;;4.07;;
3149;SDS011;32503;47.748;8.960;2023-02-01T03:40:50;3.90;;;3.60;;
3149;SDS011;32503;47.748;8.960;2023-02-01T03:43:21;6.37;;;4.13;;
3149;SDS011;32503;47.748;8.960;2023-02-01T03:45:54;5.97;;;4.60;;
3149;SDS011;32503;47.748;8.960;2023-02-01T03:48:27;6.17;;;3.93;;
3149;SDS011;32503;47.748;8.960;2023-02-01T03:50:56;3.57;;;3.37;;
3149;SDS011;32503;47.748;8.960;2023-02-01T03:53:27;5.00;;;4.60;;
3149;SDS011;32503;47.748;8.960;2023-02-01T03:55:56;7.10;;;4.43;;
3149;SDS011;32503;47.748;8.960;2023-02-01T03:58:24;5.40;;;4.00;;
3149;SDS011;32503;47.748;8.960;2023-02-01T04:00:52;4.70;;;4.27;;
3149;SDS011;32503;47.748;8.960;2023-02-01T04:03:22;5.20;;;4.50;;
3149;SDS011;32503;47.748;8.960;2023-02-01T04:05:50;3.73;;;3.43;;
3149;SDS011;32503;47.748;8.960;2023-02-01T04:08:18;6.43;;;4.33;;
3149;SDS011;32503;47.748;8.960;2023-02-01T04:10:48;5.30;;;4.33;;
3149;SDS011;32503;47.748;8.960;2023-02-01T04:13:15;3.80;;;3.57;;
3149;SDS011;32503;47.748;8.960;2023-02-01T04:15:42;4.73;;;4.33;;
3149;SDS011;32503;47.748;8.960;2023-02-01T04:18:10;7.30;;;4.40;;
3149;SDS011;32503;47.748;8.960;2023-02-01T04:20:37;4.30;;;3.97;;
3149;SDS011;32503;47.748;8.960;2023-02-01T04:23:04;6.67;;;4.07;;
3149;SDS011;32503;47.748;8.960;2023-02-01T04:25:31;5.10;;;4.70;;
3149;SDS011;32503;47.748;8.960;2023-02-01T04:28:00;4.33;;;3.80;;
3149;SDS011;32503;47.748;8.960;2023-02-01T04:30:27;8.50;;;4.93;;
3149;SDS011;32503;47.748;8.960;2023-02-01T04:32:54;4.67;;;3.80;;
3149;SDS011;32503;47.748;8.960;2023-02-01T04:35:21;4.50;;;4.10;;
3149;SDS011;32503;47.748;8.960;2023-02-01T04:37:48;4.13;;;3.83;;
3149;SDS011;32503;47.748;8.960;2023-02-01T04:40:15;5.47;;;4.93;;
3149;SDS011;32503;47.748;8.960;2023-02-01T04:42:42;5.67;;;4.83;;
3149;SDS011;32503;47.748;8.960;2023-02-01T04:45:11;4.17;;;3.77;;
3149;SDS011;32503;47.748;8.960;2023-02-01T04:47:38;4.57;;;3.90;;
3149;SDS011;32503;47.748;8.960;2023-02-01T04:50:05;4.90;;;4.50;;
3149;SDS011;32503;47.748;8.960;2023-02-01T04:52:35;4.30;;;3.90;;
3149;SDS011;32503;47.748;8.960;2023-02-01T04:55:02;4.40;;;4.00;;
3149;SDS011;32503;47.748;8.960;2023-02-01T04:57:30;4.80;;;4.40;;
3149;SDS011;32503;47.748;8.960;2023-02-01T04:59:57;3.73;;;3.00;;
3149;SDS011;32503;47.748;8.960;2023-02-01T05:02:25;5.53;;;3.90;;
3149;SDS011;32503;47.748;8.960;2023-02-01T05:04:52;4.47;;;3.87;;
3149;SDS011;32503;47.748;8.960;2023-02-01T05:07:20;4.60;;;4.20;;
3149;SDS011;32503;47.748;8.960;2023-02-01T05:09:47;4.83;;;4.27;;
3149;SDS011;32503;47.748;8.960;2023-02-01T05:12:14;4.67;;;4.20;;
3149;SDS011;32503;47.748;8.960;2023-02-01T05:14:59;3.60;;;3.40;;
3149;SDS011;32503;47.748;8.960;2023-02-01T05:17:27;5.33;;;4.33;;
3149;SDS011;32503;47.748;8.960;2023-02-01T05:19:54;4.43;;;4.07;;
3149;SDS011;32503;47.748;8.960;2023-02-01T05:22:22;5.33;;;4.77;;
3149;SDS011;32503;47.748;8.960;2023-02-01T05:24:49;5.50;;;5.10;;
3149;SDS011;32503;47.748;8.960;2023-02-01T05:27:16;4.60;;;4.20;;
3149;SDS011;32503;47.748;8.960;2023-02-01T05:29:43;5.50;;;4.43;;
3149;SDS011;32503;47.748;8.960;2023-02-01T05:32:10;4.90;;;4.40;;
3149;SDS011;32503;47.748;8.960;2023-02-01T05:34:39;6.23;;;4.97;;
3149;SDS011;32503;47.748;8.960;2023-02-01T05:37:06;5.47;;;4.20;;
3149;SDS011;32503;47.748;8.960;2023-02-01T05:39:33;4.60;;;4.20;;
3149;SDS011;32503;47.748;8.960;2023-02-01T05:42:00;5.90;;;5.20;;
3149;SDS011;32503;47.748;8.960;2023-02-01T05:44:27;4.60;;;4.07;;
3149;SDS011;32503;47.748;8.960;2023-02-01T05:46:54;4.63;;;4.30;;
3149;SDS011;32503;47.748;8.960;2023-02-01T05:49:21;5.17;;;4.67;;
3149;SDS011;32503;47.748;8.960;2023-02-01T05:51:49;6.07;;;5.10;;
3149;SDS011;32503;47.748;8.960;2023-02-01T05:54:16;6.43;;;5.43;;
3149;SDS011;32503;47.748;8.960;2023-02-01T05:56:43;6.93;;;4.53;;
3149;SDS011;32503;47.748;8.960;2023-02-01T05:59:10;5.70;;;4.60;;
3149;SDS011;32503;47.748;8.960;2023-02-01T06:01:38;5.47;;;4.77;;
3149;SDS011;32503;47.748;8.960;2023-02-01T06:04:05;5.10;;;4.23;;
3149;SDS011;32503;47.748;8.960;2023-02-01T06:06:32;6.93;;;4.50;;
3149;SDS011;32503;47.748;8.960;2023-02-01T06:09:00;6.10;;;4.77;;
3149;SDS011;32503;47.748;8.960;2023-02-01T06:11:28;4.23;;;3.63;;
3149;SDS011;32503;47.748;8.960;2023-02-01T06:13:55;4.40;;;4.00;;
3149;SDS011;32503;47.748;8.960;2023-02-01T06:16:22;5.73;;;5.00;;
3149;SDS011;32503;47.748;8.960;2023-02-01T06:18:49;5.63;;;4.50;;
3149;SDS011;32503;47.748;8.960;2023-02-01T06:21:17;4.73;;;4.33;;
3149;SDS011;32503;47.748;8.960;2023-02-01T06:23:48;8.23;;;4.93;;
3149;SDS011;32503;47.748;8.960;2023-02-01T06:26:17;4.97;;;4.50;;
3149;SDS011;32503;47.748;8.960;2023-02-01T06:28:44;5.67;;;4.50;;
3149;SDS011;32503;47.748;8.960;2023-02-01T06:31:11;5.50;;;5.00;;
3149;SDS011;32503;47.748;8.960;2023-02-01T06:33:39;4.87;;;4.27;;
3149;SDS011;32503;47.748;8.960;2023-02-01T06:36:07;4.33;;;3.93;;
3149;SDS011;32503;47.748;8.960;2023-02-01T06:38:37;4.20;;;3.87;;
3149;SDS011;32503;47.748;8.960;2023-02-01T06:41:04;5.07;;;4.57;;
3149;SDS011;32503;47.748;8.960;2023-02-01T06:43:33;4.30;;;3.90;;
3149;SDS011;32503;47.748;8.960;2023-02-01T06:46:02;4.13;;;3.00;;
3149;SDS011;32503;47.748;8.960;2023-02-01T06:48:32;5.33;;;4.63;;
3149;SDS011;32503;47.748;8.960;2023-02-01T06:51:00;3.60;;;3.30;;
3149;SDS011;32503;47.748;8.960;2023-02-01T06:53:27;3.67;;;3.27;;
3149;SDS011;32503;47.748;8.960;2023-02-01T06:55:55;3.73;;;3.40;;
3149;SDS011;32503;47.748;8.960;2023-02-01T06:58:23;4.10;;;3.70;;
3149;SDS011;32503;47.748;8.960;2023-02-01T07:00:55;4.90;;;3.70;;
3149;SDS011;32503;47.748;8.960;2023-02-01T07:03:22;3.63;;;3.33;;
3149;SDS011;32503;47.748;8.960;2023-02-01T07:05:49;4.60;;;3.83;;
3149;SDS011;32503;47.748;8.960;2023-02-01T07:08:23;3.47;;;3.07;;
3149;SDS011;32503;47.748;8.960;2023-02-01T07:10:50;3.53;;;3.23;;
3149;SDS011;32503;47.748;8.960;2023-02-01T07:13:18;4.33;;;3.90;;
3149;SDS011;32503;47.748;8.960;2023-02-01T07:15:45;4.60;;;4.10;;
3149;SDS011;32503;47.748;8.960;2023-02-01T07:18:14;7.40;;;4.40;;
3149;SDS011;32503;47.748;8.960;2023-02-01T07:20:41;7.53;;;4.50;;
3149;SDS011;32503;47.748;8.960;2023-02-01T07:23:09;4.93;;;4.53;;
3149;SDS011;32503;47.748;8.960;2023-02-01T07:25:36;6.00;;;5.03;;
3149;SDS011;32503;47.748;8.960;2023-02-01T07:28:03;7.40;;;4.60;;
3149;SDS011;32503;47.748;8.960;2023-02-01T07:30:30;4.83;;;4.43;;
3149;SDS011;32503;47.748;8.960;2023-02-01T07:32:57;7.00;;;5.20;;
3149;SDS011;32503;47.748;8.960;2023-02-01T07:35:27;6.07;;;5.50;;
3149;SDS011;32503;47.748;8.960;2023-02-01T07:37:56;10.73;;;5.43;;
3149;SDS011;32503;47.748;8.960;2023-02-01T07:40:24;8.87;;;5.73;;
3149;SDS011;32503;47.748;8.960;2023-02-01T07:42:53;6.00;;;5.50;;
3149;SDS011;32503;47.748;8.960;2023-02-01T07:45:21;8.00;;;5.77;;
3149;SDS011;32503;47.748;8.960;2023-02-01T07:47:48;6.13;;;5.67;;
3149;SDS011;32503;47.748;8.960;2023-02-01T07:50:17;6.30;;;5.00;;
3149;SDS011;32503;47.748;8.960;2023-02-01T07:52:46;6.00;;;5.33;;
3149;SDS011;32503;47.748;8.960;2023-02-01T07:55:13;5.13;;;4.73;;
3149;SDS011;32503;47.748;8.960;2023-02-01T07:57:40;4.83;;;4.40;;
3149;SDS011;32503;47.748;8.960;2023-02-01T08:00:08;8.13;;;7.00;;
3149;SDS011;32503;47.748;8.960;2023-02-01T08:02:53;5.33;;;4.80;;
3149;SDS011;32503;47.748;8.960;2023-02-01T08:05:23;7.47;;;6.10;;
3149;SDS011;32503;47.748;8.960;2023-02-01T08:07:51;5.67;;;5.17;;
3149;SDS011;32503;47.748;8.960;2023-02-01T08:10:19;5.87;;;5.00;;
3149;SDS011;32503;47.748;8.960;2023-02-01T08:12:46;7.77;;;5.37;;
3149;SDS011;32503;47.748;8.960;2023-02-01T08:15:13;6.03;;;5.43;;
3149;SDS011;32503;47.748;8.960;2023-02-01T08:17:45;7.97;;;5.10;;
3149;SDS011;32503;47.748;8.960;2023-02-01T08:20:13;5.90;;;4.87;;
3149;SDS011;32503;47.748;8.960;2023-02-01T08:22:41;5.17;;;4.70;;
3149;SDS011;32503;47.748;8.960;2023-02-01T08:25:10;5.70;;;4.50;;
3149;SDS011;32503;47.748;8.960;2023-02-01T08:27:37;5.00;;;4.60;;
3149;SDS011;32503;47.748;8.960;2023-02-01T08:30:05;9.00;;;4.83;;
3149;SDS011;32503;47.748;8.960;2023-02-01T08:32:34;7.60;;;4.63;;
3149;SDS011;32503;47.748;8.960;2023-02-01T08:35:02;5.27;;;4.87;;
3149;SDS011;32503;47.748;8.960;2023-02-01T08:37:30;5.50;;;5.00;;
3149;SDS011;32503;47.748;8.960;2023-02-01T08:39:58;6.30;;;5.67;;
3149;SDS011;32503;47.748;8.960;2023-02-01T08:42:26;9.73;;;5.23;;
3149;SDS011;32503;47.748;8.960;2023-02-01T08:45:11;11.70;;;5.90;;
3149;SDS011;32503;47.748;8.960;2023-02-01T08:47:38;6.67;;;5.00;;
3149;SDS011;32503;47.748;8.960;2023-02-01T08:50:06;8.00;;;5.23;;
3149;SDS011;32503;47.748;8.960;2023-02-01T08:52:35;6.00;;;5.27;;
3149;SDS011;32503;47.748;8.960;2023-02-01T08:55:02;5.90;;;5.30;;
3149;SDS011;32503;47.748;8.960;2023-02-01T08:57:30;6.83;;;5.57;;
3149;SDS011;32503;47.748;8.960;2023-02-01T08:59:58;10.03;;;6.53;;
3149;SDS011;32503;47.748;8.960;2023-02-01T09:02:25;9.13;;;6.00;;
3149;SDS011;32503;47.748;8.960;2023-02-01T09:04:52;7.40;;;5.67;;
3149;SDS011;32503;47.748;8.960;2023-02-01T09:07:19;7.33;;;5.40;;
3149;SDS011;32503;47.748;8.960;2023-02-01T09:09:46;5.70;;;4.63;;
3149;SDS011;32503;47.748;8.960;2023-02-01T09:12:13;7.00;;;5.80;;
3149;SDS011;32503;47.748;8.960;2023-02-01T09:14:41;8.03;;;6.70;;
3149;SDS011;32503;47.748;8.960;2023-02-01T09:17:08;8.10;;;5.90;;
3149;SDS011;32503;47.748;8.960;2023-02-01T09:19:35;10.20;;;6.57;;
3149;SDS011;32503;47.748;8.960;2023-02-01T09:22:02;8.40;;;6.17;;
3149;SDS011;32503;47.748;8.960;2023-02-01T09:24:30;12.47;;;6.70;;
3149;SDS011;32503;47.748;8.960;2023-02-01T09:26:57;6.13;;;5.53;;
3149;SDS011;32503;47.748;8.960;2023-02-01T09:29:24;10.27;;;6.17;;
3149;SDS011;32503;47.748;8.960;2023-02-01T09:31:53;8.90;;;6.40;;
3149;SDS011;32503;47.748;8.960;2023-02-01T09:34:20;11.33;;;6.70;;
3149;SDS011;32503;47.748;8.960;2023-02-01T09:36:47;7.07;;;6.37;;
3149;SDS011;32503;47.748;8.960;2023-02-01T09:39:14;9.50;;;7.13;;
3149;SDS011;32503;47.748;8.960;2023-02-01T09:41:52;7.80;;;6.73;;
3149;SDS011;32503;47.748;8.960;2023-02-01T09:44:35;9.70;;;7.20;;
3149;SDS011;32503;47.748;8.960;2023-02-01T09:47:16;8.27;;;7.47;;
3149;SDS011;32503;47.748;8.960;2023-02-01T09:49:48;9.53;;;6.70;;
3149;SDS011;32503;47.748;8.960;2023-02-01T09:52:23;8.37;;;6.53;;
3149;SDS011;32503;47.748;8.960;2023-02-01T09:54:58;9.60;;;6.87;;
3149;SDS011;32503;47.748;8.960;2023-02-01T09:57:39;8.83;;;6.77;;
3149;SDS011;32503;47.748;8.960;2023-02-01T10:00:14;6.10;;;5.43;;
3149;SDS011;32503;47.748;8.960;2023-02-01T10:02:47;8.60;;;5.77;;
3149;SDS011;32503;47.748;8.960;2023-02-01T10:05:16;9.60;;;6.80;;
3149;SDS011;32503;47.748;8.960;2023-02-01T10:07:54;8.30;;;6.20;;
3149;SDS011;32503;47.748;8.960;2023-02-01T10:10:30;10.10;;;6.80;;
3149;SDS011;32503;47.748;8.960;2023-02-01T10:13:09;10.97;;;6.27;;
3149;SDS011;32503;47.748;8.960;2023-02-01T10:16:00;8.20;;;5.83;;
3149;SDS011;32503;47.748;8.960;2023-02-01T10:18:47;9.17;;;6.43;;
3149;SDS011;32503;47.748;8.960;2023-02-01T10:21:30;9.00;;;6.30;;
3149;SDS011;32503;47.748;8.960;2023-02-01T10:24:17;8.37;;;5.80;;
3149;SDS011;32503;47.748;8.960;2023-02-01T10:27:01;8.97;;;6.70;;
3149;SDS011;32503;47.748;8.960;2023-02-01T10:29:38;7.73;;;6.00;;
3149;SDS011;32503;47.748;8.960;2023-02-01T10:32:12;5.83;;;5.10;;
3149;SDS011;32503;47.748;8.960;2023-02-01T10:34:43;5.20;;;4.70;;
3149;SDS011;32503;47.748;8.960;2023-02-01T10:37:20;4.90;;;4.50;;
3149;SDS011;32503;47.748;8.960;2023-02-01T10:39:53;5.33;;;4.83;;
3149;SDS011;32503;47.748;8.960;2023-02-01T10:42:24;6.50;;;5.30;;
3149;SDS011;32503;47.748;8.960;2023-02-01T10:44:54;5.93;;;5.40;;
3149;SDS011;32503;47.748;8.960;2023-02-01T10:47:24;5.03;;;4.53;;
3149;SDS011;32503;47.748;8.960;2023-02-01T10:49:54;6.00;;;4.67;;
3149;SDS011;32503;47.748;8.960;2023-02-01T10:52:33;6.10;;;5.43;;
3149;SDS011;32503;47.748;8.960;2023-02-01T10:55:26;5.03;;;4.30;;
3149;SDS011;32503;47.748;8.960;2023-02-01T10:57:59;4.50;;;3.90;;
3149;SDS011;32503;47.748;8.960;2023-02-01T11:00:34;4.70;;;4.27;;
3149;SDS011;32503;47.748;8.960;2023-02-01T11:03:30;4.40;;;4.10;;
3149;SDS011;32503;47.748;8.960;2023-02-01T11:06:04;5.07;;;4.67;;
3149;SDS011;32503;47.748;8.960;2023-02-01T11:08:47;4.77;;;4.33;;
3149;SDS011;32503;47.748;8.960;2023-02-01T11:11:17;5.10;;;4.60;;
3149;SDS011;32503;47.748;8.960;2023-02-01T11:13:45;5.40;;;4.90;;
3149;SDS011;32503;47.748;8.960;2023-02-01T11:16:20;3.60;;;3.40;;
3149;SDS011;32503;47.748;8.960;2023-02-01T11:18:54;5.10;;;4.60;;
3149;SDS011;32503;47.748;8.960;2023-02-01T11:21:22;4.40;;;4.07;;
3149;SDS011;32503;47.748;8.960;2023-02-01T11:23:49;5.87;;;3.93;;
3149;SDS011;32503;47.748;8.960;2023-02-01T11:26:20;3.93;;;3.63;;
3149;SDS011;32503;47.748;8.960;2023-02-01T11:28:54;4.57;;;4.07;;
3149;SDS011;32503;47.748;8.960;2023-02-01T11:31:26;4.37;;;4.07;;
3149;SDS011;32503;47.748;8.960;2023-02-01T11:33:55;7.33;;;4.50;;
3149;SDS011;32503;47.748;8.960;2023-02-01T11:36:28;4.43;;;4.00;;
3149;SDS011;32503;47.748;8.960;2023-02-01T11:39:17;4.70;;;4.10;;
3149;SDS011;32503;47.748;8.960;2023-02-01T11:41:58;5.80;;;3.83;;
3149;SDS011;32503;47.748;8.960;2023-02-01T11:44:31;5.20;;;3.83;;
3149;SDS011;32503;47.748;8.960;2023-02-01T11:47:21;4.20;;;3.80;;
3149;SDS011;32503;47.748;8.960;2023-02-01T11:49:51;5.47;;;4.43;;
3149;SDS011;32503;47.748;8.960;2023-02-01T11:52:26;5.60;;;4.13;;
3149;SDS011;32503;47.748;8.960;2023-02-01T11:55:18;4.80;;;4.40;;
3149;SDS011;32503;47.748;8.960;2023-02-01T11:58:20;3.93;;;3.50;;
3149;SDS011;32503;47.748;8.960;2023-02-01T12:01:07;4.40;;;4.00;;
3149;SDS011;32503;47.748;8.960;2023-02-01T12:04:06;6.90;;;3.30;;
3149;SDS011;32503;47.748;8.960;2023-02-01T12:06:54;4.70;;;4.33;;
3149;SDS011;32503;47.748;8.960;2023-02-01T12:09:32;4.83;;;3.73;;
3149;SDS011;32503;47.748;8.960;2023-02-01T12:12:10;4.57;;;4.17;;
3149;SDS011;32503;47.748;8.960;2023-02-01T12:14:53;4.30;;;3.90;;
3149;SDS011;32503;47.748;8.960;2023-02-01T12:17:41;5.27;;;4.67;;
3149;SDS011;32503;47.748;8.960;2023-02-01T12:20:38;4.00;;;3.80;;
3149;SDS011;32503;47.748;8.960;2023-02-01T12:23:33;6.13;;;4.20;;
3149;SDS011;32503;47.748;8.960;2023-02-01T12:26:44;4.23;;;3.70;;
3149;SDS011;32503;47.748;8.960;2023-02-01T12:29:29;3.57;;;3.37;;
3149;SDS011;32503;47.748;8.960;2023-02-01T12:32:31;7.03;;;3.80;;
3149;SDS011;32503;47.748;8.960;2023-02-01T12:35:36;4.90;;;4.27;;
3149;SDS011;32503;47.748;8.960;2023-02-01T12:38:19;7.67;;;3.67;;
3149;SDS011;32503;47.748;8.960;2023-02-01T12:41:13;3.73;;;3.43;;
3149;SDS011;32503;47.748;8.960;2023-02-01T12:44:10;2.73;;;2.53;;
3149;SDS011;32503;47.748;8.960;2023-02-01T12:46:48;6.53;;;3.17;;
3149;SDS011;32503;47.748;8.960;2023-02-01T12:49:21;7.43;;;2.80;;
3149;SDS011;32503;47.748;8.960;2023-02-01T12:52:01;3.13;;;2.93;;
3149;SDS011;32503;47.748;8.960;2023-02-01T12:54:36;2.93;;;2.60;;
3149;SDS011;32503;47.748;8.960;2023-02-01T12:57:10;3.70;;;3.00;;
3149;SDS011;32503;47.748;8.960;2023-02-01T12:59:44;2.00;;;1.80;;
3149;SDS011;32503;47.748;8.960;2023-02-01T13:02:21;4.30;;;2.80;;
3149;SDS011;32503;47.748;8.960;2023-02-01T13:04:56;2.80;;;2.60;;
3149;SDS011;32503;47.748;8.960;2023-02-01T13:07:30;3.07;;;2.60;;
3149;SDS011;32503;47.748;8.960;2023-02-01T13:10:05;2.37;;;2.20;;
3149;SDS011;32503;47.748;8.960;2023-02-01T13:12:43;2.80;;;2.00;;
3149;SDS011;32503;47.748;8.960;2023-02-01T13:15:21;5.40;;;2.33;;
3149;SDS011;32503;47.748;8.960;2023-02-01T13:17:54;4.10;;;2.80;;
3149;SDS011;32503;47.748;8.960;2023-02-01T13:20:28;4.23;;;2.30;;
3149;SDS011;32503;47.748;8.960;2023-02-01T13:22:59;2.70;;;2.60;;
3149;SDS011;32503;47.748;8.960;2023-02-01T13:25:33;7.43;;;2.60;;
3149;SDS011;32503;47.748;8.960;2023-02-01T13:28:06;2.40;;;2.30;;
3149;SDS011;32503;47.748;8.960;2023-02-01T13:30:49;3.37;;;1.77;;
3149;SDS011;32503;47.748;8.960;2023-02-01T13:33:44;5.50;;;2.10;;
3149;SDS011;32503;47.748;8.960;2023-02-01T13:36:41;2.50;;;2.30;;
3149;SDS011;32503;47.748;8.960;2023-02-01T13:39:45;3.90;;;2.10;;
3149;SDS011;32503;47.748;8.960;2023-02-01T13:42:25;2.93;;;2.73;;
3149;SDS011;32503;47.748;8.960;2023-02-01T13:44:56;2.37;;;1.80;;
3149;SDS011;32503;47.748;8.960;2023-02-01T13:47:29;12.87;;;2.60;;
3149;SDS011;32503;47.748;8.960;2023-02-01T13:49:59;2.33;;;2.13;;
3149;SDS011;32503;47.748;8.960;2023-02-01T13:52:37;6.17;;;2.60;;
3149;SDS011;32503;47.748;8.960;2023-02-01T13:55:24;2.63;;;2.53;;
3149;SDS011;32503;47.748;8.960;2023-02-01T13:58:04;2.40;;;2.20;;
3149;SDS011;32503;47.748;8.960;2023-02-01T14:00:41;2.57;;;2.37;;
3149;SDS011;32503;47.748;8.960;2023-02-01T14:03:12;2.83;;;2.30;;
3149;SDS011;32503;47.748;8.960;2023-02-01T14:06:02;3.27;;;2.67;;
3149;SDS011;32503;47.748;8.960;2023-02-01T14:09:13;2.70;;;2.60;;
3149;SDS011;32503;47.748;8.960;2023-02-01T14:11:46;4.60;;;2.00;;
3149;SDS011;32503;47.748;8.960;2023-02-01T14:23:24;4.13;;;2.27;;
3149;SDS011;32503;47.748;8.960;2023-02-01T14:26:09;2.70;;;2.50;;
3149;SDS011;32503;47.748;8.960;2023-02-01T14:28:44;2.57;;;2.37;;
3149;SDS011;32503;47.748;8.960;2023-02-01T14:31:31;3.80;;;2.10;;
3149;SDS011;32503;47.748;8.960;2023-02-01T14:34:17;4.03;;;2.33;;
3149;SDS011;32503;47.748;8.960;2023-02-01T14:36:52;2.73;;;2.53;;
3149;SDS011;32503;47.748;8.960;2023-02-01T14:39:29;4.47;;;2.17;;
3149;SDS011;32503;47.748;8.960;2023-02-01T14:42:02;3.70;;;2.60;;
3149;SDS011;32503;47.748;8.960;2023-02-01T14:44:43;4.40;;;2.33;;
3149;SDS011;32503;47.748;8.960;2023-02-01T14:50:00;3.10;;;2.07;;
3149;SDS011;32503;47.748;8.960;2023-02-01T14:53:17;9.97;;;3.00;;
3149;SDS011;32503;47.748;8.960;2023-02-01T14:55:50;8.77;;;2.77;;
3149;SDS011;32503;47.748;8.960;2023-02-01T14:58:27;5.50;;;2.60;;
3149;SDS011;32503;47.748;8.960;2023-02-01T15:01:03;3.20;;;2.77;;
3149;SDS011;32503;47.748;8.960;2023-02-01T15:03:43;3.03;;;2.00;;
3149;SDS011;32503;47.748;8.960;2023-02-01T15:06:27;6.10;;;2.60;;
3149;SDS011;32503;47.748;8.960;2023-02-01T15:09:04;1.97;;;1.87;;
3149;SDS011;32503;47.748;8.960;2023-02-01T15:14:25;3.53;;;2.20;;
3149;SDS011;32503;47.748;8.960;2023-02-01T15:16:54;8.10;;;2.10;;
3149;SDS011;32503;47.748;8.960;2023-02-01T15:19:22;3.17;;;2.80;;
3149;SDS011;32503;47.748;8.960;2023-02-01T15:21:52;3.33;;;2.37;;
3149;SDS011;32503;47.748;8.960;2023-02-01T15:24:23;13.60;;;3.23;;
3149;SDS011;32503;47.748;8.960;2023-02-01T15:26:53;2.70;;;2.60;;
3149;SDS011;32503;47.748;8.960;2023-02-01T15:29:22;2.77;;;2.50;;
3149;SDS011;32503;47.748;8.960;2023-02-01T15:31:52;2.50;;;2.30;;
3149;SDS011;32503;47.748;8.960;2023-02-01T15:34:20;2.47;;;2.27;;
3149;SDS011;32503;47.748;8.960;2023-02-01T15:36:47;2.37;;;2.17;;
3149;SDS011;32503;47.748;8.960;2023-02-01T15:39:16;2.60;;;1.97;;
3149;SDS011;32503;47.748;8.960;2023-02-01T15:41:50;4.90;;;2.80;;
3149;SDS011;32503;47.748;8.960;2023-02-01T15:44:31;3.10;;;2.03;;
3149;SDS011;32503;47.748;8.960;2023-02-01T15:47:06;2.27;;;2.03;;
3149;SDS011;32503;47.748;8.960;2023-02-01T15:49:41;2.23;;;2.13;;
3149;SDS011;32503;47.748;8.960;2023-02-01T15:52:14;3.60;;;2.30;;
3149;SDS011;32503;47.748;8.960;2023-02-01T15:54:50;4.43;;;2.37;;
3149;SDS011;32503;47.748;8.960;2023-02-01T15:57:23;3.20;;;2.90;;